createdAt,value
2022-10-17T00:01:41.115Z,63.19
2022-10-17T00:04:10.017Z,59.01
2022-10-17T00:06:38.893Z,57.63
2022-10-17T00:09:07.754Z,59.69
2022-10-17T00:11:37.191Z,62.30
2022-10-17T00:14:06.076Z,69.33
2022-10-17T00:16:38.052Z,67.04
2022-10-17T00:19:08.202Z,61.79
2022-10-17T00:21:37.112Z,59.67
2022-10-17T00:24:17.070Z,55.88
2022-10-17T00:26:50.615Z,57.34
2022-10-17T00:29:23.776Z,60.36
2022-10-17T00:31:58.373Z,67.55
2022-10-17T00:34:31.575Z,65.12
2022-10-17T00:37:00.322Z,61.23
2022-10-17T00:39:29.936Z,57.38
2022-10-17T00:41:58.614Z,58.02
2022-10-17T00:44:30.454Z,61.59
2022-10-17T00:47:06.756Z,68.55
2022-10-17T00:49:39.233Z,64.97
2022-10-17T00:52:31.142Z,60.94
2022-10-17T00:55:29.861Z,56.88
2022-10-17T00:58:04.013Z,56.54
2022-10-17T01:00:33.005Z,58.59
2022-10-17T01:03:01.672Z,66.47
2022-10-17T01:05:31.335Z,65.14
2022-10-17T01:08:01.233Z,60.28
2022-10-17T01:11:04.535Z,54.82
2022-10-17T01:14:17.620Z,57.08
2022-10-17T01:16:59.894Z,61.50
2022-10-17T01:19:50.153Z,67.84
2022-10-17T01:22:30.817Z,62.80
2022-10-17T01:25:39.634Z,57.75
2022-10-17T01:29:07.893Z,57.72
2022-10-17T01:32:07.652Z,60.84
2022-10-17T01:34:49.153Z,68.14
2022-10-17T01:37:40.383Z,64.61
2022-10-17T01:41:01.823Z,60.29
2022-10-17T01:43:42.192Z,55.21
2022-10-17T01:46:31.573Z,57.61
2022-10-17T01:49:03.753Z,60.39
2022-10-17T01:51:54.981Z,68.93
2022-10-17T01:54:45.212Z,67.82
2022-10-17T01:57:40.294Z,62.56
2022-10-17T02:00:24.661Z,60.74
2022-10-17T02:03:05.742Z,59.03
2022-10-17T02:05:44.234Z,56.23
2022-10-17T02:08:15.034Z,58.84
2022-10-17T02:11:04.992Z,62.10
2022-10-17T02:17:16.300Z,63.45
2022-10-17T02:20:46.733Z,58.47
2022-10-17T02:23:44.224Z,56.42
2022-10-17T02:26:30.556Z,59.34
2022-10-17T02:29:22.644Z,61.34
2022-10-17T02:32:00.712Z,67.92
2022-10-17T02:34:43.261Z,63.08
2022-10-17T02:38:14.114Z,59.51
2022-10-17T02:41:14.201Z,55.68
2022-10-17T02:43:55.651Z,59.28
2022-10-17T02:46:27.864Z,62.28
2022-10-17T02:49:15.056Z,69.63
2022-10-17T02:52:08.098Z,65.33
2022-10-17T02:54:58.332Z,58.76
2022-10-17T02:57:33.874Z,56.21
2022-10-17T03:00:05.835Z,57.91
2022-10-17T03:02:50.792Z,61.08
2022-10-17T03:05:23.313Z,68.68
2022-10-17T03:07:53.035Z,65.11
2022-10-17T03:10:23.243Z,59.57
2022-10-17T03:12:52.074Z,56.03
2022-10-17T03:15:20.752Z,57.95
2022-10-17T03:17:49.495Z,61.48
2022-10-17T03:20:18.212Z,68.41
2022-10-17T03:23:33.435Z,65.08
2022-10-17T03:26:17.952Z,59.78
2022-10-17T03:28:54.485Z,56.10
2022-10-17T03:31:57.913Z,58.70
2022-10-17T03:35:01.114Z,61.78
2022-10-17T03:37:38.277Z,69.06
2022-10-17T03:40:13.442Z,63.62
2022-10-17T03:42:42.370Z,59.67
2022-10-17T03:45:11.481Z,55.74
2022-10-17T03:47:47.894Z,57.47
2022-10-17T03:50:18.095Z,61.22
2022-10-17T03:52:58.073Z,69.18
2022-10-17T03:55:42.423Z,67.37
2022-10-17T03:58:23.945Z,62.21
2022-10-17T04:01:13.184Z,58.38
2022-10-17T04:03:56.406Z,57.59
2022-10-17T04:06:54.006Z,60.63
2022-10-17T04:09:42.295Z,67.51
2022-10-17T04:12:18.515Z,63.79
2022-10-17T04:14:47.434Z,59.83
2022-10-17T04:17:16.254Z,56.88
2022-10-17T04:19:53.741Z,57.95
2022-10-17T04:22:47.581Z,61.29
2022-10-17T04:25:29.656Z,69.21
2022-10-17T04:27:59.935Z,65.76
2022-10-17T04:30:41.157Z,60.71
2022-10-17T04:33:28.341Z,55.98
2022-10-17T04:36:14.894Z,57.90
2022-10-17T04:38:44.274Z,60.73
2022-10-17T04:41:19.401Z,68.19
2022-10-17T04:43:59.014Z,67.97
2022-10-17T04:46:27.925Z,62.56
2022-10-17T04:49:12.842Z,60.74
2022-10-17T04:52:13.721Z,56.94
2022-10-17T04:55:08.437Z,57.27
2022-10-17T04:58:06.061Z,59.80
2022-10-17T05:00:51.903Z,68.40
2022-10-17T05:03:22.838Z,65.03
2022-10-17T05:05:53.155Z,60.98
2022-10-17T05:08:21.834Z,57.55
2022-10-17T05:10:50.667Z,56.99
2022-10-17T05:13:19.254Z,60.08
2022-10-17T05:15:47.829Z,67.32
2022-10-17T05:18:16.454Z,66.34
2022-10-17T05:20:45.095Z,62.27
2022-10-17T05:23:13.909Z,58.02
2022-10-17T05:25:42.593Z,56.93
2022-10-17T05:28:11.134Z,59.67
2022-10-17T05:30:39.854Z,66.87
2022-10-17T05:33:08.639Z,65.04
2022-10-17T05:35:37.236Z,61.08
2022-10-17T05:38:05.814Z,56.96
2022-10-17T05:40:35.235Z,56.39
2022-10-17T05:43:03.981Z,59.45
2022-10-17T05:45:32.777Z,66.57
2022-10-17T05:48:01.454Z,65.25
2022-10-17T05:50:30.176Z,61.09
2022-10-17T05:52:59.094Z,56.34
2022-10-17T05:55:28.215Z,57.80
2022-10-17T05:57:56.944Z,59.47
2022-10-17T06:00:25.557Z,66.68
2022-10-17T06:02:54.363Z,64.53
2022-10-17T06:05:22.973Z,60.55
2022-10-17T06:07:54.326Z,58.63
2022-10-17T06:10:24.734Z,56.82
2022-10-17T06:12:53.334Z,58.93
2022-10-17T06:15:21.896Z,65.74
2022-10-17T06:17:50.594Z,63.86
2022-10-17T06:20:19.541Z,58.61
2022-10-17T06:22:48.474Z,55.38
2022-10-17T06:25:17.185Z,57.32
2022-10-17T06:27:45.739Z,59.94
2022-10-17T06:30:14.596Z,66.15
2022-10-17T06:32:43.055Z,65.68
2022-10-17T06:35:11.722Z,60.31
2022-10-17T06:37:40.738Z,55.85
2022-10-17T06:40:12.493Z,57.34
2022-10-17T06:42:41.937Z,60.18
2022-10-17T06:45:11.421Z,66.69
2022-10-17T06:47:40.243Z,64.86
2022-10-17T06:50:09.376Z,58.38
2022-10-17T06:52:37.903Z,55.70
2022-10-17T06:55:07.425Z,57.94
2022-10-17T06:57:36.534Z,60.50
2022-10-17T07:00:06.735Z,67.42
2022-10-17T07:02:35.374Z,64.44
2022-10-17T07:05:04.101Z,58.62
2022-10-17T07:07:33.034Z,55.61
2022-10-17T07:10:01.816Z,57.40
2022-10-17T07:18:23.614Z,68.49
2022-10-17T07:20:56.265Z,67.18
2022-10-17T07:23:24.875Z,60.66
2022-10-17T07:25:53.775Z,56.69
2022-10-17T07:28:22.317Z,57.34
2022-10-17T07:30:53.717Z,60.03
2022-10-17T07:33:23.305Z,66.45
2022-10-17T07:35:53.272Z,62.70
2022-10-17T07:38:21.924Z,57.66
2022-10-17T07:41:02.027Z,55.69
2022-10-17T07:43:31.624Z,58.07
2022-10-17T07:46:02.686Z,60.05
2022-10-17T07:48:32.145Z,66.39
2022-10-17T07:51:07.135Z,62.84
2022-10-17T07:53:39.222Z,57.64
2022-10-17T07:56:09.881Z,55.62
2022-10-17T07:58:39.637Z,57.45
2022-10-17T08:01:15.812Z,59.40
2022-10-17T08:03:48.899Z,66.87
2022-10-17T08:06:18.217Z,62.44
2022-10-17T08:08:46.707Z,56.96
2022-10-17T08:11:16.621Z,56.01
2022-10-17T08:13:45.213Z,57.87
2022-10-17T08:16:14.358Z,59.89
2022-10-17T08:18:44.539Z,66.51
2022-10-17T08:21:13.883Z,63.05
2022-10-17T08:23:42.719Z,56.37
2022-10-17T08:26:20.312Z,54.47
2022-10-17T08:28:49.999Z,58.45
2022-10-17T08:31:21.265Z,63.51
2022-10-17T08:33:51.286Z,61.58
2022-10-17T08:36:21.605Z,55.16
2022-10-17T08:38:52.760Z,55.54
2022-10-17T08:41:34.042Z,56.63
2022-10-17T08:44:40.818Z,58.06
2022-10-17T08:47:23.533Z,65.60
2022-10-17T08:49:57.866Z,59.98
2022-10-17T08:52:47.641Z,54.03
2022-10-17T08:55:30.237Z,54.34
2022-10-17T08:57:59.044Z,55.78
2022-10-17T09:00:31.526Z,57.86
2022-10-17T09:03:15.487Z,63.92
2022-10-17T09:06:30.337Z,61.11
2022-10-17T09:09:36.080Z,53.18
2022-10-17T09:12:58.623Z,54.16
2022-10-17T09:16:18.404Z,56.34
2022-10-17T09:19:27.239Z,63.56
2022-10-17T09:22:04.732Z,55.96
2022-10-17T09:24:44.712Z,53.79
2022-10-17T09:27:41.727Z,55.36
2022-10-17T09:30:46.372Z,56.49
2022-10-17T09:33:35.632Z,63.11
2022-10-17T09:36:14.555Z,57.71
2022-10-17T09:38:58.327Z,55.69
2022-10-17T09:41:46.895Z,57.58
2022-10-17T09:44:48.409Z,57.24
2022-10-17T09:47:35.539Z,61.71
2022-10-17T09:50:16.517Z,56.59
2022-10-17T09:52:48.047Z,53.73
2022-10-17T09:55:40.700Z,54.19
2022-10-17T09:58:11.815Z,56.29
2022-10-17T10:00:45.338Z,57.55
2022-10-17T10:03:18.636Z,59.14
2022-10-17T10:06:04.557Z,63.69
2022-10-17T10:08:56.526Z,58.90
2022-10-17T10:11:54.535Z,51.53
2022-10-17T10:14:34.911Z,51.23
2022-10-17T10:17:24.705Z,57.12
2022-10-17T10:19:54.074Z,58.56
2022-10-17T10:22:24.228Z,59.32
2022-10-17T10:25:11.216Z,59.09
2022-10-17T10:27:42.499Z,60.69
2022-10-17T10:30:22.957Z,62.81
2022-10-17T10:32:52.328Z,57.44
2022-10-17T10:35:34.435Z,51.89
2022-10-17T10:38:11.298Z,52.79
2022-10-17T10:40:57.306Z,53.86
2022-10-17T10:43:41.448Z,53.36
2022-10-17T10:46:37.371Z,56.66
2022-10-17T10:49:33.190Z,57.99
2022-10-17T10:52:06.283Z,57.22
2022-10-17T10:54:42.965Z,58.57
2022-10-17T10:57:21.178Z,57.77
2022-10-17T11:00:02.847Z,58.54
2022-10-17T11:03:12.652Z,58.81
2022-10-17T11:05:56.654Z,58.33
2022-10-17T11:08:53.098Z,57.35
2022-10-17T11:11:34.984Z,57.87
2022-10-17T11:14:38.698Z,58.36
2022-10-17T11:17:19.070Z,58.12
2022-10-17T11:20:18.668Z,58.06
2022-10-17T11:23:00.659Z,57.37
2022-10-17T11:25:39.115Z,57.56
2022-10-17T11:28:18.359Z,56.77
2022-10-17T11:31:00.604Z,57.81
2022-10-17T11:34:08.639Z,57.12
2022-10-17T11:36:43.126Z,57.31
2022-10-17T11:39:28.417Z,57.58
2022-10-17T11:42:07.659Z,56.24
2022-10-17T11:44:41.769Z,56.38
2022-10-17T11:47:48.178Z,56.35
2022-10-17T11:53:20.509Z,55.24
2022-10-17T11:55:52.698Z,54.48
2022-10-17T11:58:37.602Z,55.02
2022-10-17T12:01:35.237Z,54.65
2022-10-17T12:04:41.983Z,54.90
2022-10-17T12:07:29.157Z,55.93
2022-10-17T12:10:16.358Z,54.62
2022-10-17T12:12:44.844Z,54.66
2022-10-17T12:15:13.421Z,54.32
2022-10-17T12:17:46.438Z,54.36
2022-10-17T12:20:21.678Z,54.60
2022-10-17T12:23:03.641Z,54.45
2022-10-17T12:25:47.808Z,53.75
2022-10-17T12:28:39.888Z,53.43
2022-10-17T12:31:16.431Z,53.39
2022-10-17T12:34:19.585Z,52.96
2022-10-17T12:36:48.166Z,53.18
2022-10-17T12:39:18.085Z,53.07
2022-10-17T12:41:47.009Z,52.98
2022-10-17T12:44:15.667Z,53.51
2022-10-17T12:47:10.978Z,53.26
2022-10-17T12:49:54.385Z,52.68
2022-10-17T12:52:33.441Z,52.57
2022-10-17T12:55:14.522Z,52.81
2022-10-17T12:58:08.555Z,52.70
2022-10-17T13:01:11.634Z,52.51
2022-10-17T13:03:48.064Z,52.30
2022-10-17T13:06:26.166Z,52.36
2022-10-17T13:09:04.234Z,52.30
2022-10-17T13:11:38.316Z,52.96
2022-10-17T13:14:17.299Z,52.88
2022-10-17T13:17:07.908Z,52.57
2022-10-17T13:19:46.219Z,52.52
2022-10-17T13:22:32.598Z,52.93
2022-10-17T13:25:15.929Z,52.99
2022-10-17T13:27:45.747Z,53.34
2022-10-17T13:30:32.653Z,53.21
2022-10-17T13:33:03.729Z,53.12
2022-10-17T13:35:59.533Z,53.12
2022-10-17T13:38:34.190Z,53.37
2022-10-17T13:41:34.373Z,53.29
2022-10-17T13:44:08.422Z,53.14
2022-10-17T13:46:40.164Z,52.75
2022-10-17T13:49:37.476Z,53.10
2022-10-17T13:52:24.347Z,53.03
2022-10-17T13:54:54.668Z,52.53
2022-10-17T13:57:32.179Z,52.18
2022-10-17T14:00:16.006Z,52.97
2022-10-17T14:02:44.680Z,52.92
2022-10-17T14:05:20.399Z,53.02
2022-10-17T14:08:14.487Z,53.26
2022-10-17T14:10:45.617Z,53.32
2022-10-17T14:13:28.280Z,53.43
2022-10-17T14:16:03.036Z,53.25
2022-10-17T14:18:36.861Z,53.39
2022-10-17T14:21:36.831Z,53.41
2022-10-17T14:24:16.579Z,53.52
2022-10-17T14:27:00.936Z,53.60
2022-10-17T14:29:32.227Z,53.34
2022-10-17T14:32:15.417Z,53.41
2022-10-17T14:34:45.447Z,53.25
2022-10-17T14:37:51.081Z,53.07
2022-10-17T14:40:26.415Z,53.41
2022-10-17T14:42:58.374Z,53.41
2022-10-17T14:45:37.443Z,53.59
2022-10-17T14:48:24.726Z,53.21
2022-10-17T14:51:18.676Z,53.60
2022-10-17T14:54:27.180Z,53.53
2022-10-17T14:56:56.388Z,53.17
2022-10-17T14:59:52.148Z,53.60
2022-10-17T15:02:15.419Z,53.92
2022-10-17T15:04:44.099Z,54.03
2022-10-17T15:07:17.887Z,53.94
2022-10-17T15:09:51.204Z,54.49
2022-10-17T15:12:25.405Z,54.36
2022-10-17T15:14:55.016Z,54.46
2022-10-17T15:17:31.938Z,54.74
2022-10-17T15:20:00.937Z,54.70
2022-10-17T15:22:31.704Z,54.89
2022-10-17T15:25:00.510Z,55.10
2022-10-17T15:27:31.982Z,55.23
2022-10-17T15:30:00.860Z,55.31
2022-10-17T15:32:29.439Z,55.46
2022-10-17T15:34:57.919Z,55.53
2022-10-17T15:37:34.112Z,55.82
2022-10-17T15:40:02.787Z,55.93
2022-10-17T15:42:32.095Z,56.07
2022-10-17T15:45:00.792Z,56.48
2022-10-17T15:47:36.197Z,56.59
2022-10-17T15:50:09.185Z,56.91
2022-10-17T15:52:38.180Z,57.16
2022-10-17T15:55:08.182Z,57.32
2022-10-17T15:57:43.339Z,57.61
2022-10-17T16:00:24.437Z,57.89
2022-10-17T16:02:52.999Z,58.18
2022-10-17T16:05:26.876Z,58.51
2022-10-17T16:07:57.957Z,58.91
2022-10-17T16:10:27.370Z,59.34
2022-10-17T16:12:56.760Z,59.66
2022-10-17T16:15:28.340Z,59.88
2022-10-17T16:18:01.641Z,60.21
2022-10-17T16:20:33.057Z,60.59
2022-10-17T16:23:03.481Z,60.76
2022-10-17T16:25:33.088Z,61.29
2022-10-17T16:28:02.734Z,61.63
2022-10-17T16:30:33.149Z,61.71
2022-10-17T16:33:01.708Z,62.13
2022-10-17T16:35:34.792Z,67.67
2022-10-17T16:38:08.951Z,68.59
2022-10-17T16:40:40.619Z,60.40
2022-10-17T16:43:15.302Z,56.11
2022-10-17T16:45:43.881Z,56.43
2022-10-17T16:48:12.778Z,57.40
2022-10-17T16:50:41.562Z,58.23
2022-10-17T16:53:10.460Z,58.74
2022-10-17T16:55:39.147Z,59.74
2022-10-17T16:58:07.816Z,60.76
2022-10-17T17:00:39.331Z,61.02
2022-10-17T17:03:07.963Z,61.61
2022-10-17T17:05:36.538Z,66.75
2022-10-17T17:08:09.092Z,68.08
2022-10-17T17:10:50.624Z,61.78
2022-10-17T17:13:20.035Z,54.34
2022-10-17T17:15:50.640Z,53.12
2022-10-17T17:18:22.897Z,54.28
2022-10-17T17:20:51.798Z,56.05
2022-10-17T17:23:20.997Z,57.35
2022-10-17T17:25:51.220Z,58.30
2022-10-17T17:28:20.018Z,59.16
2022-10-17T17:30:49.271Z,60.72
2022-10-17T17:33:19.397Z,61.44
2022-10-17T17:35:48.840Z,68.32
2022-10-17T17:38:18.302Z,68.30
2022-10-17T17:40:50.770Z,60.72
2022-10-17T17:43:21.526Z,55.22
2022-10-17T17:45:50.642Z,54.22
2022-10-17T17:48:21.734Z,56.21
2022-10-17T17:50:52.639Z,57.92
2022-10-17T17:53:22.440Z,59.30
2022-10-17T17:56:07.570Z,60.50
2022-10-17T17:58:37.454Z,60.93
2022-10-17T18:01:14.387Z,68.12
2022-10-17T18:03:44.118Z,66.07
2022-10-17T18:06:13.019Z,59.99
2022-10-17T18:08:46.577Z,54.93
2022-10-17T18:11:17.175Z,55.80
2022-10-17T18:13:48.586Z,57.76
2022-10-17T18:16:17.479Z,59.25
2022-10-17T18:18:46.281Z,60.57
2022-10-17T18:21:15.479Z,61.80
2022-10-17T18:23:47.187Z,68.24
2022-10-17T18:26:17.239Z,67.13
2022-10-17T18:28:46.137Z,60.85
2022-10-17T18:31:36.301Z,54.83
2022-10-17T18:34:06.480Z,54.43
2022-10-17T18:36:37.559Z,56.46
2022-10-17T18:39:06.478Z,58.65
2022-10-17T18:41:35.740Z,60.15
2022-10-17T18:44:05.080Z,62.08
2022-10-17T18:46:41.224Z,69.25
2022-10-17T18:49:14.219Z,67.19
2022-10-17T18:51:43.441Z,60.99
2022-10-17T18:54:17.419Z,55.10
2022-10-17T18:56:47.270Z,54.88
2022-10-17T18:59:16.457Z,57.15
2022-10-17T19:01:45.465Z,58.72
2022-10-17T19:04:15.359Z,60.46
2022-10-17T19:06:45.077Z,67.42
2022-10-17T19:09:15.928Z,66.07
2022-10-17T19:11:44.898Z,58.97
2022-10-17T19:14:14.351Z,54.05
2022-10-17T19:16:49.372Z,55.11
2022-10-17T19:19:24.560Z,56.10
2022-10-17T19:21:54.188Z,58.93
2022-10-17T19:24:28.719Z,60.25
2022-10-17T19:27:02.927Z,60.60
2022-10-17T19:29:32.397Z,67.10
2022-10-17T19:32:02.088Z,63.97
2022-10-17T19:34:30.739Z,56.78
2022-10-17T19:36:59.726Z,57.82
2022-10-17T19:39:28.719Z,60.24
2022-10-17T19:41:57.402Z,62.88
2022-10-17T19:44:26.301Z,63.16
2022-10-17T19:46:54.917Z,56.70
2022-10-17T19:49:23.979Z,55.57
2022-10-17T19:51:52.925Z,57.74
2022-10-17T19:54:21.668Z,58.82
2022-10-17T19:56:50.481Z,60.01
2022-10-17T19:59:20.199Z,65.70
2022-10-17T20:01:48.770Z,61.10
2022-10-17T20:04:17.640Z,58.00
2022-10-17T20:06:46.406Z,60.10
2022-10-17T20:09:17.074Z,62.25
2022-10-17T20:11:46.563Z,61.40
2022-10-17T20:14:15.228Z,56.90
2022-10-17T20:16:45.238Z,57.77
2022-10-17T20:19:14.472Z,60.05
2022-10-17T20:21:44.416Z,62.10
2022-10-17T20:24:16.288Z,60.90
2022-10-17T20:26:46.281Z,56.85
2022-10-17T20:29:21.481Z,57.16
2022-10-17T20:31:51.198Z,56.61
2022-10-17T20:34:20.507Z,58.30
2022-10-17T20:36:50.100Z,60.89
2022-10-17T20:39:21.277Z,65.90
2022-10-17T20:41:49.939Z,62.49
2022-10-17T20:44:18.518Z,54.49
2022-10-17T20:47:00.581Z,52.68
2022-10-17T20:49:33.000Z,54.71
2022-10-17T20:52:02.252Z,58.50
2022-10-17T20:54:31.017Z,60.63
2022-10-17T20:57:02.516Z,60.39
2022-10-17T20:59:36.327Z,66.33
2022-10-17T21:02:06.558Z,62.92
2022-10-17T21:04:50.468Z,54.63
2022-10-17T21:07:19.297Z,53.00
2022-10-17T21:09:47.979Z,54.94
2022-10-17T21:12:25.929Z,57.99
2022-10-17T21:15:06.190Z,59.66
2022-10-17T21:17:35.041Z,60.31
2022-10-17T21:20:04.235Z,64.02
2022-10-17T21:22:35.278Z,59.08
2022-10-17T21:25:04.159Z,56.66
2022-10-17T21:27:32.647Z,56.66
2022-10-17T21:30:01.428Z,57.83
2022-10-17T21:32:40.364Z,58.77
2022-10-17T21:35:18.567Z,58.70
2022-10-17T21:37:46.948Z,61.25
2022-10-17T21:40:15.627Z,66.64
2022-10-17T21:42:44.120Z,63.39
2022-10-17T21:45:15.742Z,54.53
2022-10-17T21:48:11.602Z,52.29
2022-10-17T21:50:37.217Z,53.79
2022-10-17T21:53:05.898Z,55.64
2022-10-17T21:55:37.883Z,56.87
2022-10-17T21:58:06.442Z,57.78
2022-10-17T22:01:07.803Z,59.07
2022-10-17T22:03:46.678Z,59.70
2022-10-17T22:06:44.009Z,67.70
2022-10-17T22:09:43.418Z,64.13
2022-10-17T22:12:47.379Z,54.15
2022-10-17T22:15:47.046Z,55.64
2022-10-17T22:18:22.334Z,57.75
2022-10-17T22:21:12.108Z,60.81
2022-10-17T22:24:00.312Z,65.99
2022-10-17T22:26:39.824Z,60.69
2022-10-17T22:29:15.650Z,53.27
2022-10-17T22:31:47.310Z,53.17
2022-10-17T22:34:19.642Z,54.64
2022-10-17T22:36:52.117Z,56.21
2022-10-17T22:39:23.026Z,57.64
2022-10-17T22:41:55.446Z,58.68
2022-10-17T22:44:26.013Z,59.83
2022-10-17T22:46:58.911Z,60.61
2022-10-17T23:14:26.171Z,61.55
2022-10-17T23:24:28.571Z,52.96
2022-10-17T23:27:07.320Z,54.68
2022-10-17T23:29:43.329Z,56.39
2022-10-17T23:42:38.018Z,68.86
